createdAt,value
2019-05-29T00:01:19.819Z,16.90
2019-05-29T00:03:45.981Z,17.30
2019-05-29T00:06:16.977Z,14.75
2019-05-29T00:08:47.397Z,16.45
2019-05-29T00:11:24.845Z,17.02
2019-05-29T00:13:59.018Z,18.98
2019-05-29T00:16:28.474Z,18.75
2019-05-29T00:18:59.608Z,11.73
2019-05-29T00:21:35.112Z,17.12
2019-05-29T00:24:04.723Z,15.23
2019-05-29T00:26:39.741Z,16.93
2019-05-29T00:29:09.618Z,15.18
2019-05-29T00:31:48.292Z,13.65
2019-05-29T00:34:18.838Z,15.72
2019-05-29T00:36:54.136Z,13.28
2019-05-29T00:39:23.735Z,15.08
2019-05-29T00:41:53.261Z,14.07
2019-05-29T00:44:33.924Z,14.18
2019-05-29T00:46:53.950Z,15.18
2019-05-29T00:49:23.417Z,15.50
2019-05-29T00:51:54.400Z,15.60
2019-05-29T00:54:42.046Z,15.05
2019-05-29T00:59:42.013Z,14.73
2019-05-29T01:02:11.901Z,15.75
2019-05-29T01:04:42.583Z,16.73
2019-05-29T01:07:12.314Z,14.53
2019-05-29T01:09:47.570Z,16.73
2019-05-29T01:12:25.619Z,16.17
2019-05-29T01:14:58.741Z,15.88
2019-05-29T01:18:53.486Z,16.73
2019-05-29T01:20:59.258Z,15.85
2019-05-29T01:23:33.035Z,13.20
2019-05-29T01:29:48.106Z,17.95
2019-05-29T01:32:42.395Z,17.75
2019-05-29T01:35:12.059Z,16.95
2019-05-29T01:37:44.423Z,16.17
2019-05-29T01:40:20.063Z,14.43
2019-05-29T01:42:45.389Z,16.52
2019-05-29T01:45:21.564Z,14.13
2019-05-29T01:57:19.700Z,15.25
2019-05-29T01:59:49.245Z,15.18
2019-05-29T02:02:32.394Z,15.43
2019-05-29T02:05:22.049Z,15.20
2019-05-29T02:08:01.955Z,15.10
2019-05-29T02:10:34.190Z,13.53
2019-05-29T02:13:08.434Z,15.32
2019-05-29T02:15:41.189Z,16.05
2019-05-29T02:18:10.666Z,14.78
2019-05-29T02:21:06.845Z,17.65
2019-05-29T02:23:26.935Z,16.73
2019-05-29T02:25:56.472Z,15.72
2019-05-29T02:28:26.810Z,17.32
2019-05-29T02:30:56.398Z,15.43
2019-05-29T02:33:26.330Z,18.57
2019-05-29T02:36:00.012Z,17.00
2019-05-29T02:38:29.467Z,17.82
2019-05-29T02:41:00.806Z,18.50
2019-05-29T02:43:30.323Z,15.10
2019-05-29T02:45:59.797Z,13.60
2019-05-29T02:48:30.137Z,17.45
2019-05-29T02:51:00.387Z,16.62
2019-05-29T02:53:30.806Z,16.80
2019-05-29T02:56:00.401Z,17.07
2019-05-29T02:58:31.606Z,14.63
2019-05-29T03:01:01.175Z,14.63
2019-05-29T03:03:39.494Z,15.78
2019-05-29T03:06:04.835Z,17.35
2019-05-29T03:08:34.668Z,17.73
2019-05-29T03:11:23.090Z,19.45
2019-05-29T03:13:53.938Z,14.70
2019-05-29T03:16:24.392Z,16.75
2019-05-29T03:18:54.488Z,16.95
2019-05-29T03:21:30.650Z,19.20
2019-05-29T03:24:01.140Z,19.52
2019-05-29T03:26:35.117Z,16.50
2019-05-29T03:29:09.128Z,14.30
2019-05-29T03:31:47.418Z,14.98
2019-05-29T03:34:18.345Z,16.42
2019-05-29T03:36:49.363Z,16.57
2019-05-29T03:39:20.971Z,15.32
2019-05-29T03:41:50.446Z,14.33
2019-05-29T03:44:21.182Z,14.58
2019-05-29T03:46:51.726Z,14.83
2019-05-29T03:52:15.581Z,14.60
2019-05-29T03:54:48.212Z,13.95
2019-05-29T03:57:17.754Z,14.35
2019-05-29T03:59:51.872Z,14.30
2019-05-29T04:02:24.172Z,15.78
2019-05-29T04:05:09.110Z,15.58
2019-05-29T04:10:52.420Z,14.28
2019-05-29T04:13:23.442Z,14.30
2019-05-29T04:16:50.631Z,16.82
2019-05-29T04:21:55.086Z,14.50
2019-05-29T04:25:21.011Z,13.53
2019-05-29T04:28:05.450Z,14.85
2019-05-29T04:30:39.652Z,16.75
2019-05-29T04:33:21.946Z,22.87
2019-05-29T04:35:57.600Z,17.40
2019-05-29T04:41:58.141Z,17.80
2019-05-29T04:48:05.354Z,24.90
2019-05-29T04:48:11.058Z,18.65
2019-05-29T04:54:22.614Z,20.57
2019-05-29T04:57:15.252Z,19.30
2019-05-29T05:02:01.830Z,22.93
2019-05-29T05:15:11.976Z,18.25
2019-05-29T05:35:14.202Z,13.72
2019-05-29T06:21:18.093Z,15.90
2019-05-29T06:23:54.767Z,16.95
2019-05-29T06:26:48.565Z,14.68
2019-05-29T06:29:51.665Z,16.05
2019-05-29T06:35:58.235Z,14.90
2019-05-29T06:38:35.586Z,14.15
2019-05-29T06:41:05.584Z,21.37
2019-05-29T06:43:35.749Z,14.90
2019-05-29T06:46:16.957Z,15.45
2019-05-29T06:49:08.750Z,15.95
2019-05-29T06:51:51.787Z,16.85
2019-05-29T06:54:35.959Z,14.75
2019-05-29T06:57:45.914Z,18.25
2019-05-29T07:00:34.368Z,15.90
2019-05-29T07:02:54.146Z,17.98
2019-05-29T07:05:56.735Z,30.12
2019-05-29T07:08:38.643Z,16.60
2019-05-29T07:11:04.074Z,22.13
2019-05-29T07:13:35.240Z,16.77
2019-05-29T07:16:18.221Z,16.65
2019-05-29T07:19:23.967Z,18.77
2019-05-29T07:21:24.519Z,21.07
2019-05-29T07:23:54.027Z,17.52
2019-05-29T07:26:23.488Z,17.48
2019-05-29T07:29:08.522Z,11.43
2019-05-29T07:31:42.972Z,10.25
2019-05-29T07:46:51.431Z,9.43
2019-05-29T08:34:34.239Z,5.40
2019-05-29T08:37:07.571Z,5.15
2019-05-29T09:09:00.235Z,4.00
2019-05-29T09:18:17.107Z,4.67
2019-05-29T09:21:03.169Z,5.00
2019-05-29T09:23:30.049Z,5.25
2019-05-29T09:43:57.753Z,7.08
2019-05-29T10:13:19.707Z,4.83
2019-05-29T10:16:13.740Z,6.30
2019-05-29T10:22:53.028Z,7.83
2019-05-29T10:36:03.740Z,6.05
2019-05-29T10:42:10.178Z,5.08
2019-05-29T10:44:44.881Z,4.97
2019-05-29T10:54:04.675Z,3.35
2019-05-29T10:57:20.614Z,2.25
2019-05-29T11:00:09.313Z,2.37
2019-05-29T11:05:19.421Z,2.60
2019-05-29T11:07:54.401Z,2.55
2019-05-29T11:13:24.140Z,2.77
2019-05-29T11:15:54.776Z,3.62
2019-05-29T11:18:24.350Z,3.33
2019-05-29T11:26:54.670Z,4.60
2019-05-29T11:30:29.096Z,4.28
2019-05-29T11:36:13.720Z,3.75
2019-05-29T11:38:46.081Z,4.37
2019-05-29T11:41:25.876Z,4.45
2019-05-29T11:43:47.703Z,4.00
2019-05-29T11:46:19.925Z,3.90
2019-05-29T11:48:49.387Z,4.10
2019-05-29T11:51:21.783Z,4.45
2019-05-29T11:53:53.316Z,5.90
2019-05-29T11:56:35.962Z,7.28
2019-05-29T11:59:14.286Z,10.65
2019-05-29T12:36:17.440Z,5.87
2019-05-29T12:39:28.160Z,5.15
2019-05-29T13:04:25.154Z,8.18
2019-05-29T13:47:40.249Z,12.03
2019-05-29T14:34:07.416Z,5.80
2019-05-29T14:37:07.989Z,8.18
2019-05-29T14:47:31.462Z,8.33
2019-05-29T14:49:59.911Z,9.53
2019-05-29T14:53:13.879Z,10.93
2019-05-29T15:59:07.686Z,11.38
2019-05-29T18:08:05.029Z,15.60
2019-05-29T18:19:07.348Z,12.85
2019-05-29T18:31:48.767Z,11.78
2019-05-29T18:34:46.499Z,12.43
2019-05-29T18:44:01.484Z,14.07
2019-05-29T18:46:47.259Z,15.80
2019-05-29T18:49:20.377Z,14.98
2019-05-29T18:52:04.801Z,14.63
2019-05-29T18:58:18.934Z,14.13
2019-05-29T19:04:16.274Z,16.10
